Ujfeherto, Hungary
Current Conditions -  °F | °C
As of 5:45 PM on Wednesday 28 Jan 2015 (Local Time) from LHDC Reporting Station
Clear Clear  
Wind Chill: 32°   Ceiling: Unl
Heat Index: 36°   Visibility: 5mi
Dew Point: 30°   Wind: 5mph
Humidity: 81%   Direction: 270°W
Pressure: 29.94"   Gusts: NA
Location:  47.8°N, 21.68°E
Report Text: LHDC 281545Z 27004KT 8000 NSC 02/M01 Q1014
Loading
Personal Weather Stations






























Interactive Weather Map New forecast layout! Learn more

10-Day Weather Forecast

Advertisements
Track Severe Weather on mobile